Time;durP1;ratioP1;P1;durP2;ratioP2;P2;SDS_P1;SDS_P2;PMS_P1;PMS_P2;Temp;Humidity;BMP_temperature;BMP_pressure;BME280_temperature;BME280_humidity;BME280_pressure;Samples;Min_cycle;Max_cycle;Signal;HPM_P1;HPM_P2
2023/11/03 00:00:49;;;;;;;1999.90;999.90;;;11.20;99.90;;;;;;5073310;28;20416;-69
2023/11/03 00:03:15;;;;;;;1999.90;999.90;;;11.20;99.90;;;;;;5072873;28;20213;-69
2023/11/03 00:05:41;;;;;;;1999.90;999.90;;;11.20;99.90;;;;;;5072972;28;20537;-69
2023/11/03 00:08:08;;;;;;;1999.90;999.90;;;11.20;99.90;;;;;;5072995;28;20308;-69
2023/11/03 00:10:36;;;;;;;1999.90;999.90;;;11.20;99.90;;;;;;5072644;28;20445;-70
2023/11/03 00:13:02;;;;;;;1999.90;999.90;;;11.20;99.90;;;;;;5072579;28;20401;-70
2023/11/03 00:15:27;;;;;;;1999.90;999.90;;;11.10;99.90;;;;;;5072856;28;20783;-70
2023/11/03 00:17:53;;;;;;;1999.90;999.90;;;11.10;99.90;;;;;;5072486;28;20505;-70
2023/11/03 00:20:19;;;;;;;1999.90;999.90;;;11.10;99.90;;;;;;5072585;28;20186;-71
2023/11/03 00:22:45;;;;;;;1999.90;999.90;;;11.10;99.90;;;;;;5072285;28;20401;-70
2023/11/03 00:25:13;;;;;;;1999.90;999.90;;;11.10;99.90;;;;;;5072571;28;20783;-70
2023/11/03 00:27:40;;;;;;;1999.90;999.90;;;11.00;99.90;;;;;;5072653;28;20418;-69
2023/11/03 00:30:07;;;;;;;1999.90;999.90;;;11.00;99.90;;;;;;5072563;28;20445;-71
2023/11/03 00:32:34;;;;;;;1999.90;999.90;;;11.00;99.90;;;;;;5072292;28;20756;-69
2023/11/03 00:34:59;;;;;;;1999.90;999.90;;;10.90;99.90;;;;;;5072417;28;20919;-70
2023/11/03 00:37:25;;;;;;;1999.90;999.90;;;11.00;99.90;;;;;;5072221;28;20452;-69
2023/11/03 00:39:51;;;;;;;1999.90;999.90;;;11.10;99.90;;;;;;5072357;28;20200;-69
2023/11/03 00:42:16;;;;;;;1999.90;999.90;;;11.00;99.90;;;;;;5072184;28;20164;-69
2023/11/03 00:44:42;;;;;;;1999.90;999.90;;;11.00;99.90;;;;;;5071554;28;20161;-69
2023/11/03 00:47:08;;;;;;;1999.90;999.90;;;11.00;99.90;;;;;;5072209;28;20170;-69
2023/11/03 00:49:37;;;;;;;1999.90;999.90;;;10.90;99.90;;;;;;5072077;28;20276;-70
2023/11/03 00:52:07;;;;;;;1999.90;999.90;;;11.00;99.90;;;;;;5071824;28;20455;-68
2023/11/03 00:54:33;;;;;;;1999.90;999.90;;;10.90;99.90;;;;;;5072118;28;20414;-67
2023/11/03 00:57:00;;;;;;;1999.90;999.90;;;10.90;99.90;;;;;;5071975;28;20501;-69
2023/11/03 00:59:26;;;;;;;1999.90;999.90;;;10.90;99.90;;;;;;5071940;28;20424;-69
2023/11/03 01:01:52;;;;;;;1999.90;999.90;;;10.90;99.90;;;;;;5071816;28;20401;-69
2023/11/03 01:04:18;;;;;;;1999.90;999.90;;;10.90;99.90;;;;;;5072024;28;20406;-69
2023/11/03 01:06:43;;;;;;;1999.90;999.90;;;10.90;99.90;;;;;;5071869;28;20570;-70
2023/11/03 01:09:09;;;;;;;1999.90;999.90;;;11.00;99.90;;;;;;5071681;28;20529;-70
2023/11/03 01:11:36;;;;;;;1999.90;999.90;;;10.90;99.90;;;;;;5071837;28;20240;-69
2023/11/03 01:14:04;;;;;;;1999.90;999.90;;;10.80;99.90;;;;;;5071859;28;20826;-69
2023/11/03 01:16:31;;;;;;;1999.90;999.90;;;10.80;99.90;;;;;;5071827;28;20854;-70
2023/11/03 01:18:56;;;;;;;1999.90;999.90;;;10.80;99.90;;;;;;5071709;28;20404;-69
2023/11/03 01:21:22;;;;;;;1999.90;999.90;;;10.80;99.90;;;;;;5071600;28;20484;-70
2023/11/03 01:23:48;;;;;;;1999.90;999.90;;;10.90;99.90;;;;;;5071726;28;20161;-69
2023/11/03 01:26:15;;;;;;;1999.90;999.90;;;10.90;99.90;;;;;;5071734;28;20170;-69
2023/11/03 01:28:41;;;;;;;1999.90;999.90;;;10.90;99.90;;;;;;5071642;28;20401;-70
2023/11/03 01:31:08;;;;;;;1999.90;999.90;;;10.90;99.90;;;;;;5071586;28;20424;-69
2023/11/03 01:33:40;;;;;;;1999.90;999.90;;;10.90;99.90;;;;;;5071392;28;20453;-70
2023/11/03 01:36:06;;;;;;;1999.90;999.90;;;10.90;99.90;;;;;;5071735;28;20412;-70
2023/11/03 01:38:32;;;;;;;1999.90;999.90;;;10.90;99.90;;;;;;5071492;28;20884;-70
2023/11/03 01:41:00;;;;;;;1999.90;999.90;;;10.90;99.90;;;;;;5071603;28;20441;-70
2023/11/03 01:43:26;;;;;;;1999.90;999.90;;;10.90;99.90;;;;;;5071461;28;20170;-69
2023/11/03 01:45:52;;;;;;;1999.90;999.90;;;10.90;99.90;;;;;;5071549;28;20408;-69
2023/11/03 01:48:17;;;;;;;1999.90;999.90;;;10.90;99.90;;;;;;5071409;28;20409;-69
2023/11/03 01:50:43;;;;;;;1999.90;999.90;;;10.90;99.90;;;;;;5071426;28;20665;-71
2023/11/03 01:53:12;;;;;;;1999.90;999.90;;;10.90;99.90;;;;;;5071267;28;20253;-70
2023/11/03 01:55:37;;;;;;;1999.90;999.90;;;10.70;99.90;;;;;;5072546;28;20183;-70
2023/11/03 01:58:03;;;;;;;1999.90;999.90;;;10.80;99.90;;;;;;5075282;28;20482;-70
2023/11/03 02:00:30;;;;;;;1999.90;999.90;;;10.80;99.90;;;;;;5075390;28;20201;-70
2023/11/03 02:02:56;;;;;;;1999.90;999.90;;;10.80;99.90;;;;;;5075053;28;20404;-68
2023/11/03 02:05:21;;;;;;;1999.90;999.90;;;10.70;99.90;;;;;;5075284;28;20880;-69
2023/11/03 02:07:48;;;;;;;1999.90;999.90;;;10.80;99.90;;;;;;5075175;28;20170;-69
2023/11/03 02:10:14;;;;;;;1999.90;999.90;;;10.80;99.90;;;;;;5075053;28;20219;-69
2023/11/03 02:12:40;;;;;;;1999.90;999.90;;;10.70;99.90;;;;;;5074891;28;20499;-71
2023/11/03 02:15:06;;;;;;;1999.90;999.90;;;10.70;99.90;;;;;;5075066;28;20172;-70
2023/11/03 02:17:32;;;;;;;1999.90;999.90;;;10.70;99.90;;;;;;5074850;28;20637;-70
2023/11/03 02:19:58;;;;;;;1999.90;999.90;;;10.90;99.90;;;;;;5074828;28;20425;-69
2023/11/03 02:22:23;;;;;;;1999.90;999.90;;;10.90;99.90;;;;;;5074692;28;20405;-70
2023/11/03 02:24:49;;;;;;;1999.90;999.90;;;10.80;99.90;;;;;;5074891;28;20160;-69
2023/11/03 02:27:15;;;;;;;1999.90;999.90;;;10.80;99.90;;;;;;5074805;28;20173;-70
2023/11/03 02:29:40;;;;;;;1999.90;999.90;;;10.80;99.90;;;;;;5074732;28;20272;-70
2023/11/03 02:32:06;;;;;;;1999.90;999.90;;;10.80;99.90;;;;;;5074474;28;20257;-70
2023/11/03 02:34:32;;;;;;;1999.90;999.90;;;10.80;99.90;;;;;;5074707;28;20172;-69
2023/11/03 02:36:57;;;;;;;1999.90;999.90;;;10.80;99.90;;;;;;5074578;28;20203;-70
2023/11/03 02:39:23;;;;;;;1999.90;999.90;;;10.80;99.90;;;;;;5074541;28;20681;-69
2023/11/03 02:41:50;;;;;;;1999.90;999.90;;;10.80;99.90;;;;;;5074396;28;20537;-69
2023/11/03 02:44:15;;;;;;;1999.90;999.90;;;10.80;99.90;;;;;;5074538;28;20401;-70
2023/11/03 02:46:44;;;;;;;1999.90;999.90;;;10.80;99.90;;;;;;5074462;28;20416;-70
2023/11/03 02:49:10;;;;;;;1999.90;999.90;;;10.90;99.90;;;;;;5069464;28;20200;-71
2023/11/03 02:51:36;;;;;;;1999.90;999.90;;;10.80;99.90;;;;;;5054389;28;20495;-70
2023/11/03 02:54:01;;;;;;;1999.90;999.90;;;10.90;99.90;;;;;;5054384;28;20449;-70
2023/11/03 02:56:27;;;;;;;1999.90;999.90;;;10.80;99.90;;;;;;5054340;28;20724;-70
2023/11/03 02:58:53;;;;;;;1999.90;999.90;;;10.60;99.90;;;;;;5054212;28;20253;-68
2023/11/03 03:01:29;;;;;;;1999.90;999.90;;;10.60;99.90;;;;;;5054118;28;20175;-69
2023/11/03 03:03:55;;;;;;;1999.90;999.90;;;10.70;99.90;;;;;;5054306;28;20406;-69
2023/11/03 03:06:21;;;;;;;1999.90;999.90;;;10.70;99.90;;;;;;5054222;28;20943;-68
2023/11/03 03:08:48;;;;;;;1999.90;999.90;;;10.70;99.90;;;;;;5053249;28;20543;-70
2023/11/03 03:11:13;;;;;;;1999.90;999.90;;;10.60;99.90;;;;;;5053904;28;20634;-70
2023/11/03 03:13:40;;;;;;;1999.90;999.90;;;10.60;99.90;;;;;;5053974;28;20398;-69
2023/11/03 03:16:07;;;;;;;1999.90;999.90;;;10.80;99.90;;;;;;5053951;28;20170;-69
2023/11/03 03:18:32;;;;;;;1999.90;999.90;;;10.70;99.90;;;;;;5053869;28;20440;-70
2023/11/03 03:20:58;;;;;;;1999.90;999.90;;;10.70;99.90;;;;;;5053829;28;20418;-71
2023/11/03 03:23:24;;;;;;;1999.90;999.90;;;10.70;99.90;;;;;;5053688;28;20315;-70
2023/11/03 03:25:49;;;;;;;1999.90;999.90;;;10.80;99.90;;;;;;5053759;28;20680;-69
2023/11/03 03:28:15;;;;;;;1999.90;999.90;;;10.60;99.90;;;;;;5053661;28;20191;-70
2023/11/03 03:30:41;;;;;;;1999.90;999.90;;;10.70;99.90;;;;;;5053718;28;20287;-70
2023/11/03 03:33:07;;;;;;;1999.90;999.90;;;10.60;99.90;;;;;;5053346;28;20214;-70
2023/11/03 03:35:32;;;;;;;1999.90;999.90;;;10.70;99.90;;;;;;5053525;28;20413;-70
2023/11/03 03:37:58;;;;;;;1999.90;999.90;;;10.70;99.90;;;;;;5053515;28;20206;-70
2023/11/03 03:40:23;;;;;;;1999.90;999.90;;;10.70;99.90;;;;;;5053566;28;20238;-69
2023/11/03 03:42:49;;;;;;;1999.90;999.90;;;10.70;99.90;;;;;;5053220;28;20173;-69
2023/11/03 03:45:15;;;;;;;1999.90;999.90;;;10.60;99.90;;;;;;5053447;28;20185;-70
2023/11/03 03:47:41;;;;;;;1999.90;999.90;;;10.60;99.90;;;;;;5053364;28;20167;-70
2023/11/03 03:50:08;;;;;;;1999.90;999.90;;;10.60;99.90;;;;;;5053353;28;20836;-70
2023/11/03 03:52:33;;;;;;;1999.90;999.90;;;10.50;99.90;;;;;;5053184;28;21029;-69
2023/11/03 03:54:59;;;;;;;1999.90;999.90;;;10.50;99.90;;;;;;5053200;28;20495;-71
2023/11/03 03:57:24;;;;;;;1999.90;999.90;;;10.40;99.90;;;;;;5053091;28;20210;-69
2023/11/03 03:59:50;;;;;;;1999.90;999.90;;;10.40;99.90;;;;;;5053051;28;20220;-70
2023/11/03 04:02:15;;;;;;;1999.90;999.90;;;10.40;99.90;;;;;;5052820;28;20170;-70
2023/11/03 04:04:43;;;;;;;1999.90;999.90;;;10.30;99.90;;;;;;5053032;28;20178;-70
2023/11/03 04:07:09;;;;;;;1999.90;999.90;;;10.30;99.90;;;;;;5053071;28;20187;-69
2023/11/03 04:09:37;;;;;;;1999.90;999.90;;;10.30;99.90;;;;;;5052801;28;20463;-70
2023/11/03 04:12:03;;;;;;;1999.90;999.90;;;10.50;99.90;;;;;;5052632;28;20654;-69
2023/11/03 04:14:29;;;;;;;1999.90;999.90;;;10.30;99.90;;;;;;5053065;28;20448;-70
2023/11/03 04:16:54;;;;;;;1999.90;999.90;;;10.20;99.90;;;;;;5052792;28;20241;-69
2023/11/03 04:19:20;;;;;;;1999.90;999.90;;;10.20;99.90;;;;;;5052630;28;20666;-67
2023/11/03 04:21:46;;;;;;;1999.90;999.90;;;10.30;99.90;;;;;;5052515;28;20230;-70
2023/11/03 04:24:11;;;;;;;1999.90;999.90;;;10.30;99.90;;;;;;5052644;28;20558;-71
2023/11/03 04:26:39;;;;;;;1999.90;999.90;;;10.20;99.90;;;;;;5052648;28;20183;-71
2023/11/03 04:29:04;;;;;;;1999.90;999.90;;;10.30;99.90;;;;;;5052562;28;20194;-69
2023/11/03 04:31:30;;;;;;;1999.90;999.90;;;10.30;99.90;;;;;;5052404;28;20413;-70
2023/11/03 04:33:55;;;;;;;1999.90;999.90;;;10.20;99.90;;;;;;5052463;28;20179;-69
2023/11/03 04:36:21;;;;;;;1999.90;999.90;;;10.10;99.90;;;;;;5052413;28;20656;-70
2023/11/03 04:38:47;;;;;;;1999.90;999.90;;;10.00;99.90;;;;;;5052488;28;20557;-68
2023/11/03 04:41:13;;;;;;;1999.90;999.90;;;10.10;99.90;;;;;;5052284;28;20661;-69
2023/11/03 04:43:40;;;;;;;1999.90;999.90;;;10.00;99.90;;;;;;5052540;28;20174;-69
2023/11/03 04:46:08;;;;;;;1999.90;999.90;;;10.10;99.90;;;;;;5052276;28;20406;-70
2023/11/03 04:48:34;;;;;;;1999.90;999.90;;;9.90;99.90;;;;;;5052261;28;20408;-70
2023/11/03 04:51:00;;;;;;;1999.90;999.90;;;10.00;99.90;;;;;;5052199;28;20419;-70
2023/11/03 04:53:25;;;;;;;1999.90;999.90;;;10.00;99.90;;;;;;5051938;28;20413;-69
2023/11/03 04:55:51;;;;;;;1999.90;999.90;;;10.10;99.90;;;;;;5052084;28;20171;-69
2023/11/03 04:58:18;;;;;;;1999.90;999.90;;;9.90;99.90;;;;;;5052031;28;20207;-70
2023/11/03 05:00:45;;;;;;;1999.90;999.90;;;10.20;99.90;;;;;;5052004;28;20237;-69
2023/11/03 05:03:11;;;;;;;1999.90;999.90;;;10.00;99.90;;;;;;5051725;28;20470;-70
2023/11/03 05:05:37;;;;;;;1999.90;999.90;;;10.10;99.90;;;;;;5051996;28;20408;-69
2023/11/03 05:08:03;;;;;;;1999.90;999.90;;;9.90;99.90;;;;;;5051916;28;20409;-70
2023/11/03 05:10:29;;;;;;;1999.90;999.90;;;10.00;99.90;;;;;;5051722;28;20598;-69
2023/11/03 05:12:55;;;;;;;1999.90;999.90;;;10.20;99.90;;;;;;5051711;28;20403;-71
2023/11/03 05:15:20;;;;;;;1999.90;999.90;;;10.00;99.90;;;;;;5051873;28;20174;-70
2023/11/03 05:17:47;;;;;;;1999.90;999.90;;;10.00;99.90;;;;;;5051668;28;20206;-71
2023/11/03 05:20:13;;;;;;;1999.90;999.90;;;10.00;99.90;;;;;;5051787;28;20286;-70
2023/11/03 05:22:38;;;;;;;1999.90;999.90;;;9.90;99.90;;;;;;5051600;28;20462;-70
2023/11/03 05:25:06;;;;;;;1999.90;999.90;;;10.00;99.90;;;;;;5051689;28;20172;-70
2023/11/03 05:27:32;;;;;;;1999.90;999.90;;;10.00;99.90;;;;;;5051661;28;20190;-69
2023/11/03 05:29:58;;;;;;;1999.90;999.90;;;10.10;99.90;;;;;;5051311;28;20437;-69
2023/11/03 05:32:24;;;;;;;1999.90;999.90;;;10.00;99.90;;;;;;5051412;28;20181;-70
2023/11/03 05:34:50;;;;;;;1999.90;999.90;;;10.10;99.90;;;;;;5051668;28;20474;-70
2023/11/03 05:37:16;;;;;;;1999.90;999.90;;;10.00;99.90;;;;;;5051569;28;20896;-69
2023/11/03 05:39:41;;;;;;;1999.90;999.90;;;10.00;99.90;;;;;;5051475;28;20192;-70
2023/11/03 05:42:07;;;;;;;1999.90;999.90;;;9.90;99.90;;;;;;5051377;28;20169;-69
2023/11/03 05:44:33;;;;;;;1999.90;999.90;;;9.90;99.90;;;;;;5051745;28;20229;-70
2023/11/03 05:47:00;;;;;;;1999.90;999.90;;;10.00;99.90;;;;;;5051513;28;20261;-70
2023/11/03 05:49:27;;;;;;;1999.90;999.90;;;10.00;99.90;;;;;;5051311;28;20481;-70
2023/11/03 05:51:53;;;;;;;1999.90;999.90;;;10.00;99.90;;;;;;5051294;28;20500;-70
2023/11/03 05:54:19;;;;;;;1999.90;999.90;;;10.00;99.90;;;;;;5051449;28;20509;-70
2023/11/03 05:56:44;;;;;;;1999.90;999.90;;;9.90;99.90;;;;;;5051333;28;20443;-70
2023/11/03 05:59:11;;;;;;;1999.90;999.90;;;9.90;99.90;;;;;;5051322;28;20186;-69
2023/11/03 06:01:36;;;;;;;1999.90;999.90;;;9.90;99.90;;;;;;5051272;28;20181;-70
2023/11/03 06:04:02;;;;;;;1999.90;999.90;;;9.90;99.90;;;;;;5051343;28;20749;-68
2023/11/03 06:06:28;;;;;;;1999.90;999.90;;;9.90;99.90;;;;;;5051352;28;20235;-72
2023/11/03 06:08:55;;;;;;;1999.90;999.90;;;9.90;99.90;;;;;;5051091;28;20186;-70
2023/11/03 06:11:21;;;;;;;1999.90;999.90;;;10.00;99.90;;;;;;5051217;28;20182;-69
2023/11/03 06:13:47;;;;;;;1999.90;999.90;;;9.90;99.90;;;;;;5051580;28;20416;-69
2023/11/03 06:16:13;;;;;;;1999.90;999.90;;;9.80;99.90;;;;;;5051334;28;20641;-69
2023/11/03 06:18:40;;;;;;;1999.90;999.90;;;9.90;99.90;;;;;;5051421;28;20416;-69
2023/11/03 06:21:06;;;;;;;1999.90;999.90;;;9.90;99.90;;;;;;5051621;28;20445;-69
2023/11/03 06:23:32;;;;;;;1999.90;999.90;;;9.90;99.90;;;;;;5051180;28;20408;-69
2023/11/03 06:25:57;;;;;;;1999.90;999.90;;;9.90;99.90;;;;;;5051481;28;20174;-69
2023/11/03 06:28:23;;;;;;;1999.90;999.90;;;9.80;99.90;;;;;;5051490;28;20559;-69
2023/11/03 06:30:50;;;;;;;1999.90;999.90;;;9.90;99.90;;;;;;5050024;28;20203;-69
2023/11/03 06:33:15;;;;;;;1999.90;999.90;;;9.80;99.90;;;;;;5059584;28;20202;-70
2023/11/03 06:35:41;;;;;;;1999.90;999.90;;;9.90;99.90;;;;;;5066076;28;20415;-70
2023/11/03 06:38:06;;;;;;;1999.90;999.90;;;9.80;99.90;;;;;;5070937;28;20205;-69
2023/11/03 06:40:33;;;;;;;1999.90;999.90;;;9.90;99.90;;;;;;5064052;28;20208;-70
2023/11/03 06:42:59;;;;;;;1999.90;999.90;;;9.80;99.90;;;;;;5060770;28;20324;-69
2023/11/03 06:45:25;;;;;;;1999.90;999.90;;;10.10;99.90;;;;;;5060300;28;20516;-68
2023/11/03 06:47:50;;;;;;;1999.90;999.90;;;10.00;99.90;;;;;;5054455;28;20206;-70
2023/11/03 06:50:16;;;;;;;1999.90;999.90;;;10.00;99.90;;;;;;5064848;28;20330;-70
2023/11/03 06:52:42;;;;;;;1999.90;999.90;;;10.00;99.90;;;;;;5065012;28;20189;-70
2023/11/03 06:55:08;;;;;;;1999.90;999.90;;;10.00;99.90;;;;;;5064032;28;20584;-69
2023/11/03 06:57:35;;;;;;;1999.90;999.90;;;10.00;99.90;;;;;;5068093;28;20462;-70
2023/11/03 07:00:01;;;;;;;1999.90;999.90;;;10.10;99.90;;;;;;5074231;28;20448;-71
2023/11/03 07:02:26;;;;;;;1999.90;999.90;;;10.20;99.90;;;;;;5074020;28;20412;-70
2023/11/03 07:04:52;;;;;;;1999.90;999.90;;;10.20;99.90;;;;;;5074206;28;20181;-70
2023/11/03 07:07:18;;;;;;;1999.90;999.90;;;10.20;99.90;;;;;;5074211;28;20627;-70
2023/11/03 07:09:44;;;;;;;1999.90;999.90;;;10.40;99.90;;;;;;5073887;28;20898;-70
2023/11/03 07:12:10;;;;;;;1999.90;999.90;;;10.20;99.90;;;;;;5073871;28;20419;-69
2023/11/03 07:14:36;;;;;;;1999.90;999.90;;;10.40;99.90;;;;;;5074144;28;20181;-70
2023/11/03 07:17:02;;;;;;;1999.90;999.90;;;10.30;99.90;;;;;;5073990;28;21046;-70
2023/11/03 07:19:28;;;;;;;1999.90;999.90;;;10.30;99.90;;;;;;5073843;28;20275;-70
2023/11/03 07:21:55;;;;;;;1999.90;999.90;;;10.30;99.90;;;;;;5073746;28;20652;-69
2023/11/03 07:24:23;;;;;;;1999.90;999.90;;;10.30;99.90;;;;;;5073973;28;20173;-69
2023/11/03 07:26:52;;;;;;;1999.90;999.90;;;10.30;99.90;;;;;;5073922;28;20408;-70
2023/11/03 07:29:18;;;;;;;1999.90;999.90;;;10.30;99.90;;;;;;5073620;28;20432;-69
2023/11/03 07:31:44;;;;;;;1999.90;999.90;;;10.30;99.90;;;;;;5073581;28;20412;-69
2023/11/03 07:34:13;;;;;;;1999.90;999.90;;;10.40;99.90;;;;;;5073702;28;20427;-71
2023/11/03 07:36:39;;;;;;;1999.90;999.90;;;10.50;99.90;;;;;;5073582;28;20808;-70
2023/11/03 07:39:06;;;;;;;1999.90;999.90;;;10.30;99.90;;;;;;5073622;28;20462;-70
2023/11/03 07:41:35;;;;;;;1999.90;999.90;;;10.30;99.90;;;;;;5060627;28;20433;-70
2023/11/03 07:44:02;;;;;;;1999.90;999.90;;;10.20;99.90;;;;;;5058771;28;20570;-70
2023/11/03 07:46:30;;;;;;;1999.90;999.90;;;10.20;99.90;;;;;;5065070;28;20764;-69
2023/11/03 07:48:59;;;;;;;1999.90;999.90;;;10.10;99.90;;;;;;5060032;28;20419;-68
2023/11/03 07:51:26;;;;;;;1999.90;999.90;;;10.30;99.90;;;;;;5064799;28;20440;-70
2023/11/03 07:53:52;;;;;;;1999.90;999.90;;;10.30;99.90;;;;;;5061444;28;20908;-70
2023/11/03 07:56:18;;;;;;;1999.90;999.90;;;10.40;99.90;;;;;;5066419;28;20418;-69
2023/11/03 07:58:45;;;;;;;1999.90;999.90;;;10.40;99.90;;;;;;5068045;28;20439;-71
2023/11/03 08:01:11;;;;;;;1999.90;999.90;;;10.40;99.90;;;;;;5073040;28;20204;-70
2023/11/03 08:03:38;;;;;;;1999.90;999.90;;;10.30;99.90;;;;;;5072860;28;20499;-69
2023/11/03 08:06:05;;;;;;;1999.90;999.90;;;10.40;99.90;;;;;;5068773;28;20429;-70
2023/11/03 08:08:31;;;;;;;1999.90;999.90;;;10.40;99.90;;;;;;5064536;28;20419;-69
2023/11/03 08:10:57;;;;;;;1999.90;999.90;;;10.60;99.90;;;;;;5072987;28;20431;-69
2023/11/03 08:13:24;;;;;;;1999.90;999.90;;;10.40;99.90;;;;;;5072603;28;20925;-69
2023/11/03 08:15:50;;;;;;;1999.90;999.90;;;10.30;99.90;;;;;;5072784;28;20175;-70
2023/11/03 08:18:16;;;;;;;1999.90;999.90;;;10.40;99.90;;;;;;5072725;28;20461;-69
2023/11/03 08:20:42;;;;;;;1999.90;999.90;;;10.40;99.90;;;;;;5072779;28;20457;-70
2023/11/03 08:23:09;;;;;;;1999.90;999.90;;;10.50;99.90;;;;;;5072650;28;20439;-69
2023/11/03 08:25:35;;;;;;;1999.90;999.90;;;10.60;99.90;;;;;;5072742;28;20451;-69
2023/11/03 08:28:01;;;;;;;1999.90;999.90;;;10.60;99.90;;;;;;5072562;28;20454;-68
2023/11/03 08:30:27;;;;;;;1999.90;999.90;;;10.70;99.90;;;;;;5072285;28;20531;-68
2023/11/03 08:32:53;;;;;;;1999.90;999.90;;;10.90;99.90;;;;;;5060711;28;20508;-69
2023/11/03 08:35:20;;;;;;;1999.90;999.90;;;10.90;99.90;;;;;;5072182;28;20845;-69
2023/11/03 08:37:52;;;;;;;1999.90;999.90;;;11.00;99.90;;;;;;5072318;28;20509;-71
2023/11/03 08:40:20;;;;;;;1999.90;999.90;;;11.00;99.90;;;;;;5072432;28;20485;-70
2023/11/03 08:42:46;;;;;;;1999.90;999.90;;;11.20;99.90;;;;;;5072027;28;20964;-69
2023/11/03 08:45:12;;;;;;;1999.90;999.90;;;11.30;99.90;;;;;;5072262;28;20417;-69
2023/11/03 08:47:41;;;;;;;1999.90;999.90;;;11.40;99.90;;;;;;5072178;28;20406;-70
2023/11/03 08:50:14;;;;;;;1999.90;999.90;;;11.50;99.90;;;;;;5072320;28;20433;-70
2023/11/03 08:52:40;;;;;;;1999.90;999.90;;;11.60;99.90;;;;;;5072047;28;20476;-70
2023/11/03 08:55:07;;;;;;;1999.90;999.90;;;11.70;99.90;;;;;;5072221;28;20410;-69
2023/11/03 08:57:38;;;;;;;1999.90;999.90;;;11.60;99.90;;;;;;5071880;28;20444;-71
2023/11/03 09:00:09;;;;;;;1999.90;999.90;;;11.70;99.90;;;;;;5072133;28;20949;-69
2023/11/03 09:02:36;;;;;;;1999.90;999.90;;;11.70;99.90;;;;;;5071810;28;20412;-70
2023/11/03 09:05:03;;;;;;;1999.90;999.90;;;11.70;99.90;;;;;;5071429;28;20408;-70
2023/11/03 09:07:29;;;;;;;1999.90;999.90;;;11.70;99.90;;;;;;5072005;28;20421;-70
2023/11/03 09:09:55;;;;;;;1999.90;999.90;;;11.80;99.90;;;;;;5071781;28;20449;-70
2023/11/03 09:12:21;;;;;;;1999.90;999.90;;;11.80;99.90;;;;;;5071914;28;20751;-70
2023/11/03 09:14:46;;;;;;;1999.90;999.90;;;11.80;99.90;;;;;;5071898;28;20417;-69
2023/11/03 09:17:13;;;;;;;1999.90;999.90;;;11.70;99.90;;;;;;5071854;28;20199;-69
2023/11/03 09:19:39;;;;;;;1999.90;999.90;;;11.90;99.90;;;;;;5064200;28;20240;-69
2023/11/03 09:22:05;;;;;;;1999.90;999.90;;;12.00;99.90;;;;;;5063158;28;20488;-70
2023/11/03 09:24:31;;;;;;;1999.90;999.90;;;12.10;99.90;;;;;;5071758;28;20410;-71
2023/11/03 09:26:57;;;;;;;1999.90;999.90;;;12.20;99.90;;;;;;5071780;28;20938;-70
2023/11/03 09:29:22;;;;;;;1999.90;999.90;;;12.30;99.90;;;;;;5071627;28;20207;-70
2023/11/03 09:31:49;;;;;;;1999.90;999.90;;;12.40;99.90;;;;;;5071594;28;20180;-70
2023/11/03 09:34:15;;;;;;;1999.90;999.90;;;12.50;99.90;;;;;;5063315;28;20428;-70
2023/11/03 09:36:41;;;;;;;1999.90;999.90;;;12.50;99.90;;;;;;5059775;28;20483;-70
2023/11/03 09:39:09;;;;;;;1999.90;999.90;;;12.20;99.90;;;;;;5067768;28;20495;-71
2023/11/03 09:41:41;;;;;;;1999.90;999.90;;;12.30;99.50;;;;;;5063218;28;20531;-71
2023/11/03 09:44:07;;;;;;;1999.90;999.90;;;12.30;99.90;;;;;;5071812;28;20411;-70
2023/11/03 09:46:33;;;;;;;1999.90;999.90;;;12.30;99.90;;;;;;5071633;28;20442;-70
2023/11/03 09:48:59;;;;;;;1999.90;999.90;;;12.30;99.90;;;;;;5067014;28;20413;-70
2023/11/03 09:51:28;;;;;;;1999.90;999.90;;;12.40;99.60;;;;;;5063024;28;20846;-70
2023/11/03 09:53:57;;;;;;;1999.90;999.90;;;12.50;99.80;;;;;;5071508;28;20182;-71
2023/11/03 09:56:24;;;;;;;1999.90;999.90;;;12.60;99.90;;;;;;5071422;28;20509;-70
2023/11/03 09:58:49;;;;;;;1999.90;999.90;;;12.60;99.90;;;;;;5071375;28;20402;-71
2023/11/03 10:01:16;;;;;;;1999.90;999.90;;;12.70;98.80;;;;;;5061765;28;20413;-68
2023/11/03 10:03:45;;;;;;;1999.90;999.90;;;12.80;97.50;;;;;;5071432;28;20182;-69
2023/11/03 10:06:11;;;;;;;1999.90;999.90;;;12.80;97.40;;;;;;5071343;28;20430;-69
2023/11/03 10:08:41;;;;;;;1999.90;999.90;;;12.90;96.00;;;;;;5071461;28;20488;-69
2023/11/03 10:11:09;;;;;;;1999.90;999.90;;;13.10;96.10;;;;;;5071421;28;20207;-70
2023/11/03 10:13:36;;;;;;;1999.90;999.90;;;13.20;97.10;;;;;;5071221;28;20411;-70
2023/11/03 10:16:03;;;;;;;1999.90;999.90;;;13.40;96.00;;;;;;5065219;28;20500;-69
2023/11/03 10:18:28;;;;;;;1999.90;999.90;;;13.50;94.90;;;;;;5066880;28;21201;-70
2023/11/03 10:20:56;;;;;;;1999.90;999.90;;;13.50;92.20;;;;;;5054878;28;20466;-70
2023/11/03 10:23:22;;;;;;;1999.90;999.90;;;13.40;91.90;;;;;;5074497;28;20676;-70
2023/11/03 10:25:49;;;;;;;1999.90;999.90;;;13.20;92.30;;;;;;5074755;28;20493;-70
2023/11/03 10:28:15;;;;;;;1999.90;999.90;;;13.10;93.50;;;;;;5074449;28;20410;-70
2023/11/03 10:30:43;;;;;;;1999.90;999.90;;;13.00;93.10;;;;;;5074503;28;20935;-69
2023/11/03 10:33:10;;;;;;;1999.90;999.90;;;13.00;94.90;;;;;;5074367;28;20713;-69
2023/11/03 10:35:36;;;;;;;1999.90;999.90;;;13.00;94.30;;;;;;5073581;28;20410;-69
2023/11/03 10:38:02;;;;;;;1999.90;999.90;;;13.00;94.60;;;;;;5074244;28;20458;-70
2023/11/03 10:40:28;;;;;;;1999.90;999.90;;;13.10;95.60;;;;;;5074298;28;20195;-70
2023/11/03 10:42:56;;;;;;;1999.90;999.90;;;13.30;94.90;;;;;;5073931;28;20410;-69
2023/11/03 10:45:31;;;;;;;1999.90;999.90;;;13.30;94.10;;;;;;5074379;28;20184;-70
2023/11/03 10:48:23;;;;;;;1999.90;999.90;;;13.40;95.20;;;;;;5074395;28;21041;-70
2023/11/03 10:50:54;;;;;;;1999.90;999.90;;;13.40;92.70;;;;;;5073980;28;20922;-70
2023/11/03 10:53:34;;;;;;;1999.90;999.90;;;13.40;93.30;;;;;;5074090;28;20450;-70
2023/11/03 10:56:10;;;;;;;1999.90;999.90;;;13.30;94.00;;;;;;5074104;28;20554;-70
2023/11/03 10:58:37;;;;;;;1999.90;999.90;;;13.20;93.60;;;;;;5073976;28;20864;-70
2023/11/03 11:01:26;;;;;;;1999.90;999.90;;;13.10;94.70;;;;;;5073889;28;20920;-70
2023/11/03 11:04:00;;;;;;;1999.90;999.90;;;13.00;95.00;;;;;;5073737;28;20416;-70
2023/11/03 11:06:31;;;;;;;1999.90;999.90;;;12.90;95.00;;;;;;5073924;28;21115;-70
2023/11/03 11:09:41;;;;;;;1999.90;999.90;;;12.60;99.90;;;;;;5073741;28;20778;-70
2023/11/03 11:12:07;;;;;;;1999.90;999.90;;;12.80;95.80;;;;;;4969996;28;20467;-70
2023/11/03 11:14:37;;;;;;;1999.90;999.90;;;12.90;96.00;;;;;;4970476;28;20415;-70
2023/11/03 11:17:07;;;;;;;1999.90;999.90;;;13.00;94.90;;;;;;5014964;28;20966;-69
2023/11/03 11:19:38;;;;;;;1999.90;999.90;;;13.10;93.70;;;;;;5042729;28;20441;-70
2023/11/03 11:22:08;;;;;;;1999.90;999.90;;;13.20;93.30;;;;;;5054115;28;20421;-70
2023/11/03 11:24:38;;;;;;;1999.90;999.90;;;13.50;93.00;;;;;;5052144;28;20448;-70
2023/11/03 11:27:19;;;;;;;1999.90;999.90;;;13.60;92.40;;;;;;5057526;28;20439;-69
2023/11/03 11:29:49;;;;;;;1999.90;999.90;;;13.60;91.20;;;;;;5055662;28;20453;-69
2023/11/03 11:32:15;;;;;;;1999.90;999.90;;;13.60;91.00;;;;;;5060415;28;20492;-69
2023/11/03 11:34:41;;;;;;;1999.90;999.90;;;13.50;89.10;;;;;;5069924;28;20802;-69
2023/11/03 11:37:30;;;;;;;1999.90;999.90;;;13.30;90.40;;;;;;5068882;28;20468;-70
2023/11/03 11:40:01;;;;;;;1999.90;999.90;;;13.30;91.90;;;;;;5052755;28;20800;-70
2023/11/03 11:42:31;;;;;;;1999.90;999.90;;;13.50;91.00;;;;;;5054690;28;20419;-70
2023/11/03 11:44:59;;;;;;;1999.90;999.90;;;13.90;91.00;;;;;;5054666;28;20469;-70
2023/11/03 11:47:27;;;;;;;1999.90;999.90;;;14.70;82.80;;;;;;5045496;28;20426;-70
2023/11/03 11:49:56;;;;;;;1999.90;999.90;;;15.50;73.60;;;;;;5060411;28;20433;-70
2023/11/03 11:52:25;;;;;;;1999.90;999.90;;;16.10;66.40;;;;;;5068804;28;20485;-70
2023/11/03 11:54:55;;;;;;;1999.90;999.90;;;16.70;57.10;;;;;;5068883;28;20422;-70
2023/11/03 11:57:21;;;;;;;1999.90;999.90;;;17.00;44.80;;;;;;5068332;28;20456;-70
2023/11/03 11:59:50;;;;;;;1999.90;999.90;;;16.80;36.50;;;;;;5068721;28;20943;-70